Data for 07/19/2010

Time Sea-Level Adjusted Pressure Absolute Pressure Temperature Relative Humidity Dew Point   
(mb) (inHg) (mb) (inHg) (C) (F) (%) (C) (F)
00:05 1018 30.06 847 25.01 18.9 66 39 4.8 40.6
00:10 1018 30.06 847 25.01 19.7 67.5 38 5.3 41.6
00:15 1018 30.06 847 25.01 19.8 67.7 38 5.2 41.4
00:20 1018 30.06 847 25.01 19.9 67.8 39 5.6 42.1
00:25 1018 30.06 847 25.01 19.6 67.2 40 5.6 42.1
00:30 1018 30.06 847 25.01 19.5 67.1 40 5.6 42.1
00:35 1018 30.06 847 25.01 19.5 67.2 40 5.7 42.2
00:40 1017 30.03 847 25.01 19.6 67.2 40 5.7 42.3
00:45 1017 30.03 847 25.01 19.5 67.1 41 5.9 42.7
00:50 1017 30.03 847 25.01 19.5 67.1 41 6.1 43
00:55 1017 30.03 847 25.01 19.3 66.8 42 6.3 43.3
01:00 1017 30.03 847 25.01 19.2 66.6 43 6.4 43.5
01:05 1017 30.03 847 25.01 19.3 66.7 43 6.5 43.7
01:10 1017 30.03 847 25.01 19.2 66.6 44 6.8 44.2
01:15 1017 30.03 847 25.01 19 66.1 45 6.8 44.3
01:20 1017 30.03 847 25.01 18.9 66 46 7.1 44.7
01:25 1017 30.03 847 25.01 18.8 65.8 47 7.2 45
01:30 1017 30.03 847 25.01 18.7 65.6 47 7.3 45.2
01:35 1017 30.03 847 25.01 18.6 65.5 48 7.5 45.6
01:40 1017 30.03 847 25.01 18.5 65.2 49 7.7 45.8
01:45 1017 30.03 847 25.01 18.4 65.1 49 7.8 46
01:50 1017 30.03 847 25.01 18.3 64.9 50 7.9 46.2
01:55 1017 30.03 847 25.01 18.1 64.6 51 7.9 46.3
02:00 1017 30.03 847 25.01 17.9 64.2 52 8.1 46.5
02:05 1017 30.03 847 25.01 17.8 64 52 8 46.4
02:10 1017 30.03 847 25.01 17.6 63.7 53 8 46.4
02:15 1017 30.03 847 25.01 17.6 63.6 53 8 46.5
02:20 1017 30.03 847 25.01 17.5 63.5 54 8.1 46.5
02:25 1017 30.03 847 25.01 17.2 63 55 8.2 46.8
02:30 1017 30.03 847 25.01 17 62.6 55 8.1 46.6
02:35 1017 30.03 847 25.01 16.9 62.5 56 8.1 46.6
02:40 1018 30.06 847 25.01 16.8 62.2 56 8 46.4
02:45 1018 30.06 847 25.01 16.8 62.2 56 8 46.4
02:50 1018 30.06 847 25.01 16.8 62.2 56 8.1 46.5
02:55 1018 30.06 847 25.01 16.7 62 56 8 46.5
03:00 1018 30.06 847 25.01 16.7 62.1 56 8 46.5
03:05 1018 30.06 847 25.01 16.6 62 57 8.1 46.7
03:10 1018 30.06 847 25.01 16.4 61.6 58 8.2 46.7
03:15 1018 30.06 847 25.01 16.2 61.2 58 8.2 46.7
03:20 1018 30.06 847 25.01 16.1 61 59 8.1 46.6
03:25 1018 30.06 847 25.01 16.1 61 59 8.2 46.7
03:30 1018 30.06 847 25.01 16 60.8 59 8.1 46.6
03:35 1018 30.06 847 25.01 16 60.8 59 8.2 46.7
03:40 1018 30.06 847 25.01 15.8 60.5 60 8.1 46.5
03:45 1018 30.06 847 25.01 15.8 60.4 60 8.1 46.5
03:50 1018 30.06 847 25.01 15.8 60.4 60 8.1 46.6
03:55 1018 30.06 847 25.01 15.7 60.2 61 8.1 46.6
04:00 1018 30.06 847 25.01 15.5 59.9 62 8.2 46.8
04:05 1018 30.06 847 25.01 15.4 59.7 62 8.2 46.7
04:10 1018 30.06 847 25.01 15.4 59.7 62 8.1 46.6
04:15 1018 30.06 847 25.01 15.3 59.5 62 8.2 46.8
04:20 1018 30.06 847 25.01 15.2 59.3 63 8.2 46.8
04:25 1018 30.06 847 25.01 15 59 63 8.2 46.7
04:30 1018 30.06 847 25.01 14.9 58.9 64 8.2 46.8
04:35 1018 30.06 847 25.01 14.8 58.6 64 8.2 46.8
04:40 1018 30.06 847 25.01 14.7 58.5 65 8.2 46.8
04:45 1018 30.06 847 25.01 14.7 58.4 65 8.2 46.8
04:50 1018 30.06 847 25.01 14.6 58.2 65 8.2 46.8
04:55 1018 30.06 847 25.01 14.5 58.1 66 8.2 46.7
05:00 1018 30.06 847 25.01 14.4 58 66 8.1 46.6
05:05 1018 30.06 847 25.01 14.4 58 66 8.2 46.7
05:10 1018 30.06 847 25.01 14.4 57.9 66 8.2 46.7
05:15 1018 30.06 847 25.01 14.3 57.7 66 8.2 46.7
05:20 1018 30.06 847 25.01 14.2 57.6 67 8.2 46.7
05:25 1018 30.06 847 25.01 14.2 57.6 67 8.1 46.7
05:30 1018 30.06 847 25.01 14.2 57.5 67 8.1 46.6
05:35 1018 30.06 847 25.01 14.2 57.5 67 8.1 46.5
05:40 1018 30.06 847 25.01 14.1 57.4 67 8.1 46.6
05:45 1018 30.06 847 25.01 14.1 57.3 67 8.1 46.5
05:50 1018 30.06 847 25.01 14 57.2 67 8.1 46.5
05:55 1018 30.06 848 25.04 13.9 57.1 67 8 46.5
06:00 1018 30.06 848 25.04 13.9 57.1 67 8 46.4
06:05 1018 30.06 848 25.04 13.9 57 68 8.1 46.5
06:10 1019 30.09 848 25.04 13.8 56.9 68 8.1 46.6
06:15 1018 30.06 848 25.04 13.7 56.7 68 8 46.5
06:20 1018 30.06 848 25.04 13.7 56.6 69 8.1 46.5
06:25 1019 30.09 848 25.04 13.7 56.7 68 8 46.5
06:30 1019 30.09 848 25.04 13.6 56.5 69 8.1 46.6
06:35 1019 30.09 848 25.04 13.4 56 71 8.2 46.8
06:40 1019 30.09 848 25.04 13.2 55.7 71 8.1 46.7
06:45 1019 30.09 848 25.04 13.2 55.7 71 8 46.4
06:50 1019 30.09 848 25.04 13.3 55.9 70 7.9 46.2
06:55 1019 30.09 848 25.04 13.5 56.3 69 8 46.3
07:00 1019 30.09 848 25.04 13.7 56.6 68 8 46.4
07:05 1019 30.09 848 25.04 13.8 56.9 68 8 46.5
07:10 1019 30.09 848 25.04 13.9 57 68 8.2 46.8
07:15 1019 30.09 848 25.04 13.9 57.1 68 8.3 46.9
07:20 1019 30.09 848 25.04 13.8 56.9 69 8.3 46.9
07:25 1019 30.09 848 25.04 13.7 56.7 69 8.3 46.9
07:30 1019 30.09 848 25.04 13.7 56.7 69 8.3 46.9
07:35 1019 30.09 848 25.04 13.8 56.8 69 8.3 46.9
07:40 1019 30.09 848 25.04 13.9 57.1 68 8.1 46.7
07:45 1019 30.09 848 25.04 14.1 57.4 68 8.4 47.1
07:50 1019 30.09 848 25.04 14.3 57.7 67 8.2 46.8
07:55 1019 30.09 848 25.04 14.8 58.6 65 8.4 47.1
08:00 1019 30.09 848 25.04 15.1 59.2 63 8.3 46.9
08:05 1019 30.09 848 25.04 15.7 60.3 62 8.4 47.2
08:10 1019 30.09 848 25.04 16.3 61.3 61 8.7 47.7
08:15 1019 30.09 848 25.04 16.9 62.4 59 9 48.1
08:20 1019 30.09 848 25.04 17 62.5 58 8.9 47.9
08:25 1019 30.09 848 25.04 16.7 62 58 8.4 47.1
08:30 1019 30.09 848 25.04 16.9 62.4 58 8.7 47.7
08:35 1019 30.09 848 25.04 17.1 62.7 59 9.1 48.4
08:40 1019 30.09 848 25.04 16.5 61.7 59 8.7 47.6
08:45 1019 30.09 848 25.04 17.1 62.8 58 8.8 47.9
08:50 1019 30.09 848 25.04 17.5 63.4 57 9 48.2
08:55 1019 30.09 848 25.04 17.6 63.6 57 9.1 48.5
09:00 1019 30.09 848 25.04 17.5 63.4 56 8.7 47.7
09:05 1019 30.09 848 25.04 17.8 64 55 8.8 47.9
09:10 1019 30.09 849 25.07 17.9 64.1 55 8.9 48.1
09:15 1019 30.09 849 25.07 18.2 64.7 55 9 48.1
09:20 1019 30.09 848 25.04 18.1 64.6 54 8.9 47.9
09:25 1019 30.09 848 25.04 18.3 64.9 54 9 48.2
09:30 1019 30.09 848 25.04 18.6 65.5 52 8.8 47.8
09:35 1019 30.09 848 25.04 19 66.1 51 8.7 47.6
09:40 1019 30.09 848 25.04 19.1 66.3 50 8.6 47.5
09:45 1019 30.09 848 25.04 19 66.2 52 9 48.2
09:50 1019 30.09 848 25.04 18.4 65.2 54 9.1 48.5
09:55 1019 30.09 848 25.04 18.6 65.4 51 8.3 47
10:00 1019 30.09 848 25.04 19.3 66.7 50 8.7 47.6
10:05 1019 30.09 848 25.04 19.3 66.8 50 8.7 47.6
10:10 1019 30.09 848 25.04 20 68.1 48 8.9 48.1
10:15 1019 30.09 848 25.04 20 68 50 9.4 49
10:20 1019 30.09 848 25.04 20.5 68.8 47 8.9 47.9
10:25 1019 30.09 848 25.04 20.4 68.7 47 8.8 47.9
10:30 1019 30.09 848 25.04 20.5 68.9 45 8.5 47.2
10:35 1019 30.09 848 25.04 20.8 69.5 43 7.9 46.2
10:40 1019 30.09 848 25.04 21.5 70.8 43 8.6 47.5
10:45 1019 30.09 848 25.04 21.3 70.3 42 7.9 46.3
10:50 1019 30.09 848 25.04 21.4 70.5 42 8.2 46.7
10:55 1019 30.09 848 25.04 21.3 70.4 43 8.3 47
11:00 1019 30.09 848 25.04 21.4 70.6 44 8.9 48.1
11:05 1019 30.09 848 25.04 21.1 69.9 42 7.8 46.1
11:10 1019 30.09 848 25.04 21.5 70.6 42 8 46.5
11:15 1019 30.09 849 25.07 21.3 70.4 42 8 46.4
11:20 1019 30.09 849 25.07 21.5 70.7 43 8.5 47.4
11:25 1019 30.09 849 25.07 21.7 71.1 37 6.7 44.1
11:30 1019 30.09 849 25.07 21.9 71.4 41 8.2 46.7
11:35 1019 30.09 849 25.07 22.2 71.9 39 7.6 45.7
11:40 1019 30.09 849 25.07 22.2 71.9 37 6.9 44.5
11:45 1019 30.09 849 25.07 22 71.7 38 7.2 44.9
11:50 1019 30.09 849 25.07 22.7 72.8 33 5.8 42.4
11:55 1019 30.09 849 25.07 22.6 72.7 36 6.8 44.3
12:00 1019 30.09 849 25.07 22.2 72 33 5.5 41.9
12:05 1020 30.12 849 25.07 22.4 72.4 36 6.7 44.1
12:10 1020 30.12 849 25.07 22.8 73.1 31 5.2 41.3
12:15 1020 30.12 849 25.07 22.9 73.2 32 5.6 42.1
12:20 1020 30.12 849 25.07 22.9 73.2 32 5.5 41.9
12:25 1019 30.09 849 25.07 22.8 73 33 6 42.8
12:30 1019 30.09 849 25.07 22.6 72.6 34 5.9 42.7
12:35 1019 30.09 849 25.07 23.4 74.1 30 4.9 40.7
12:40 1019 30.09 849 25.07 23.3 74 32 5.8 42.4
12:45 1019 30.09 848 25.04 23.7 74.6 29 5 40.9
12:50 1019 30.09 848 25.04 23.6 74.5 28 4.4 39.9
12:55 1019 30.09 848 25.04 23.9 75 27 4.2 39.6
13:00 1019 30.09 848 25.04 23.9 75 26 3.6 38.4
13:05 1019 30.09 848 25.04 23.9 75 28 4.6 40.2
13:10 1019 30.09 848 25.04 24.2 75.6 28 4.6 40.3
13:15 1019 30.09 848 25.04 24.5 76 28 5.1 41.2
13:20 1019 30.09 848 25.04 23.9 75.1 29 4.9 40.8
13:25 1019 30.09 848 25.04 24.1 75.3 28 4.7 40.5
13:30 1019 30.09 848 25.04 24.5 76.2 27 4.3 39.7
13:35 1019 30.09 848 25.04 24.9 76.8 25 3.8 38.9
13:40 1019 30.09 848 25.04 24.8 76.6 25 3.7 38.6
13:45 1019 30.09 848 25.04 25 76.9 24 3.5 38.3
13:50 1019 30.09 848 25.04 24.8 76.6 25 3.5 38.3
13:55 1019 30.09 848 25.04 24.8 76.7 25 3.5 38.3
14:00 1019 30.09 848 25.04 25.2 77.3 25 3.8 38.9
14:05 1019 30.09 848 25.04 24.9 76.7 24 3.3 38
14:10 1019 30.09 848 25.04 25.3 77.5 23 2.8 37
14:15 1019 30.09 848 25.04 25.4 77.7 22 2.6 36.7
14:20 1019 30.09 848 25.04 25.4 77.7 23 3.1 37.6
14:25 1019 30.09 848 25.04 24.8 76.7 24 3 37.4
14:30 1019 30.09 848 25.04 25.7 78.3 21 2.2 35.9
14:35 1019 30.09 848 25.04 25.5 78 21 2.1 35.7
14:40 1019 30.09 848 25.04 25.3 77.6 22 2.2 36
14:45 1019 30.09 848 25.04 25.7 78.3 21 2.2 35.9
14:50 1019 30.09 848 25.04 25.8 78.4 22 2.5 36.5
14:55 1019 30.09 848 25.04 25.5 77.8 22 2.4 36.3
15:00 1019 30.09 848 25.04 26.1 78.9 22 3 37.4
15:05 1019 30.09 848 25.04 26.2 79.1 22 2.8 37
15:10 1019 30.09 848 25.04 25.8 78.5 21 2 35.5
15:15 1019 30.09 848 25.04 26.1 79 22 3.3 37.9
15:20 1019 30.09 848 25.04 25.4 77.6 23 3.2 37.7
15:25 1019 30.09 848 25.04 25.8 78.4 22 2.6 36.6
15:30 1019 30.09 848 25.04 26 78.8 22 2.9 37.3
15:35 1019 30.09 848 25.04 26 78.8 22 2.7 36.9
15:40 1019 30.09 848 25.04 26.2 79.1 21 2.7 36.9
15:45 1019 30.09 848 25.04 26.4 79.4 24 4.3 39.7
15:50 1019 30.09 848 25.04 26.4 79.5 21 2.6 36.7
15:55 1019 30.09 848 25.04 26.8 80.2 20 2.2 35.9
16:00 1019 30.09 848 25.04 26.7 80.1 21 2.7 36.8
16:05 1019 30.09 848 25.04 26.1 78.9 20 1.7 35
16:10 1019 30.09 848 25.04 26.6 79.8 19 1.5 34.7
16:15 1019 30.09 848 25.04 27 80.7 19 2 35.6
16:20 1019 30.09 848 25.04 26.4 79.5 21 2.3 36.1
16:25 1019 30.09 848 25.04 26.3 79.3 20 1.7 35.1
16:30 1018 30.06 848 25.04 26.6 79.8 20 2.3 36.2
16:35 1018 30.06 848 25.04 25.5 77.9 21 1.9 35.5
16:40 1018 30.06 848 25.04 25.8 78.5 21 2.4 36.2
16:45 1018 30.06 848 25.04 25.7 78.3 21 2 35.6
16:50 1018 30.06 848 25.04 26.3 79.4 20 1.8 35.2
16:55 1018 30.06 848 25.04 26.6 79.9 20 2.4 36.4
17:00 1018 30.06 848 25.04 26.7 80 19 1.7 35.1
17:05 1018 30.06 848 25.04 26.7 80.1 19 1.7 35
17:10 1018 30.06 847 25.01 27 80.7 18 0.8 33.4
17:15 1018 30.06 847 25.01 26.9 80.5 18 0.5 32.9
17:20 1018 30.06 847 25.01 26.8 80.2 18 0.5 32.9
17:25 1018 30.06 847 25.01 26.5 79.8 18 0.3 32.5
17:30 1018 30.06 847 25.01 26.8 80.3 17 -0.1 31.8
17:35 1018 30.06 847 25.01 26.9 80.5 16 -0.8 30.5
17:40 1018 30.06 847 25.01 27 80.7 17 -0.1 31.8
17:45 1018 30.06 847 25.01 27.3 81.1 16 -0.1 31.7
17:50 1018 30.06 847 25.01 26.5 79.7 18 0.3 32.5
17:55 1018 30.06 847 25.01 26.7 80.1 16 -0.6 30.9
18:00 1018 30.06 847 25.01 26.9 80.5 17 0.3 32.6
18:05 1018 30.06 847 25.01 26.6 79.8 19 1.1 33.9
18:10 1018 30.06 847 25.01 25.7 78.3 18 0.1 32.1
18:15 1018 30.06 847 25.01 25.5 77.9 18 -0.2 31.6
18:20 1018 30.06 847 25.01 25.5 77.8 19 0.6 33
18:25 1018 30.06 847 25.01 25.5 77.9 19 0.6 33.1
18:30 1018 30.06 847 25.01 25.3 77.6 19 0.3 32.5
18:35 1018 30.06 847 25.01 25.3 77.5 18 -0.3 31.5
18:40 1018 30.06 847 25.01 25 77 19 -0.1 31.8
18:45 1018 30.06 847 25.01 24.8 76.7 18 -0.7 30.7
18:50 1018 30.06 847 25.01 24.7 76.5 18 -0.7 30.7
18:55 1018 30.06 847 25.01 24.9 76.9 19 -0.1 31.7
19:00 1018 30.06 847 25.01 25.2 77.4 18 -0.6 30.9
19:05 1018 30.06 847 25.01 25.1 77.1 18 -0.4 31.3
19:10 1018 30.06 847 25.01 24.9 76.8 18 -0.5 31.1
19:15 1018 30.06 847 25.01 25.4 77.7 19 0.1 32.1
19:20 1018 30.06 847 25.01 25.5 77.9 19 0.2 32.3
19:25 1018 30.06 847 25.01 24.7 76.4 19 -0.3 31.4
19:30 1018 30.06 847 25.01 24.6 76.3 18 -1.1 30.1
19:35 1018 30.06 847 25.01 24.6 76.3 20 0.4 32.7
19:40 1018 30.06 847 25.01 24.3 75.8 30 5.7 42.3
19:45 1018 30.06 847 25.01 23.1 73.6 35 7.2 45
19:50 1018 30.06 847 25.01 22.3 72.1 40 8.2 46.7
19:55 1018 30.06 847 25.01 21.8 71.3 42 8.4 47.1
20:00 1018 30.06 847 25.01 21.5 70.7 42 8.2 46.8
20:05 1018 30.06 847 25.01 21.3 70.3 43 8.3 47
20:10 1018 30.06 847 25.01 21.2 70.1 44 8.6 47.6
20:15 1018 30.06 847 25.01 21 69.8 45 8.7 47.7
20:20 1018 30.06 848 25.04 20.8 69.4 45 8.6 47.4
20:25 1018 30.06 847 25.01 20.6 69.1 46 8.7 47.7
20:30 1018 30.06 848 25.04 20.5 68.9 47 8.8 47.8
20:35 1018 30.06 848 25.04 20.3 68.6 47 8.8 47.8
20:40 1018 30.06 848 25.04 20.2 68.3 48 9 48.2
20:45 1018 30.06 848 25.04 20 68 49 9.1 48.3
20:50 1018 30.06 848 25.04 19.8 67.7 50 9.2 48.6
20:55 1018 30.06 848 25.04 19.7 67.4 50 9.2 48.6
21:00 1019 30.09 848 25.04 19.5 67.1 51 9.3 48.7
21:05 1018 30.06 848 25.04 19.3 66.8 52 9.4 48.8
21:10 1019 30.09 848 25.04 19.2 66.5 53 9.3 48.8
21:15 1019 30.09 848 25.04 19.1 66.3 53 9.4 48.8
21:20 1019 30.09 848 25.04 19 66.1 53 9.4 49
21:25 1019 30.09 848 25.04 18.9 66 53 9.3 48.7
21:30 1019 30.09 848 25.04 18.8 65.9 54 9.4 48.8
21:35 1019 30.09 848 25.04 18.7 65.7 54 9.4 49
21:40 1019 30.09 848 25.04 18.6 65.4 55 9.4 48.9
21:45 1019 30.09 848 25.04 18.5 65.3 55 9.5 49
21:50 1019 30.09 848 25.04 18.4 65.1 56 9.5 49
21:55 1019 30.09 848 25.04 18.2 64.8 56 9.5 49.1
22:00 1019 30.09 848 25.04 18.1 64.6 56 9.4 48.9
22:05 1019 30.09 848 25.04 18.1 64.5 57 9.5 49.1
22:10 1019 30.09 848 25.04 18 64.4 57 9.5 49.1
22:15 1019 30.09 849 25.07 18 64.4 57 9.5 49
22:20 1019 30.09 849 25.07 17.9 64.3 58 9.6 49.2
22:25 1019 30.09 849 25.07 17.9 64.2 58 9.7 49.4
22:30 1019 30.09 849 25.07 17.8 64.1 59 9.7 49.5
22:35 1020 30.12 849 25.07 17.7 63.9 60 9.9 49.8
22:40 1020 30.12 849 25.07 17.7 63.8 60 9.9 49.8
22:45 1020 30.12 849 25.07 17.5 63.5 61 9.9 49.8
22:50 1020 30.12 849 25.07 17.5 63.4 61 10 49.9
22:55 1020 30.12 849 25.07 17.4 63.3 62 10 50
23:00 1020 30.12 849 25.07 17.3 63.1 63 10.2 50.3
23:05 1020 30.12 849 25.07 17.1 62.8 64 10.2 50.4
23:10 1020 30.12 849 25.07 17 62.5 64 10.1 50.2
23:15 1020 30.12 849 25.07 16.9 62.5 64 10.2 50.3
23:20 1020 30.12 849 25.07 16.8 62.2 65 10.1 50.2
23:25 1020 30.12 849 25.07 16.7 62.1 65 10.2 50.3
23:30 1020 30.12 849 25.07 16.6 61.8 65 10.1 50.2
23:35 1020 30.12 849 25.07 16.5 61.8 65 10 50.1
23:40 1020 30.12 849 25.07 16.5 61.7 65 10 50
23:45 1020 30.12 849 25.07 16.5 61.7 65 10 50
23:50 1020 30.12 849 25.07 16.5 61.7 65 10 50
23:55 1020 30.12 849 25.07 16.4 61.6 65 9.9 49.9
24:00 1020 30.12 849 25.07 16.4 61.5 65 9.9 49.8